MV Sukran S — TCKB — position and weather

sailwx.info

Track history (hours):
 
Tides and Currents Weather Stations Pressure Air Temp Water Temp Dewpoint Dewpoint Depression Visibility Wind Speed Wind Dir Waves Ship Positions

MV Sukran S

Last reported at 2014-Nov-21 08:19 UTC. Time now 2014-Nov-27 08:17 UTC.
Position N 36°34' E 026°43'.

Length 108 m; draft 6.9 m.

Type: Cargo ship. MMSI: 271000056.

Date/timePositionNaut miles runAvg speedWind from/ knotsBaromVisibWave heightAir tempDewpointWater temp
2014-Nov-21 08:19N 36°34' E 026°43'7 9.6
2014-Nov-21 07:33N 36°39' E 026°36'9 9.1
2014-Nov-21 06:33N 36°45' E 026°28'10 9.2
2014-Nov-21 05:28N 36°52' E 026°19'9 9.3
2014-Nov-21 04:31N 36°59' E 026°12'9 9.6
2014-Nov-21 03:33N 37°07' E 026°08'1010.0
2014-Nov-21 02:33N 37°16' E 026°02'10 9.9
2014-Nov-21 01:33N 37°25' E 025°56'1010.2
2014-Nov-21 00:33N 37°35' E 025°53'1310.1
2014-Nov-20 23:13N 37°48' E 025°51'  
2014-Nov-17 22:11N 46°35' E 031°31'6 8.9
2014-Nov-17 21:33N 46°36' E 031°39'9 9.3
2014-Nov-17 20:33N 46°35' E 031°52'9 9.4
2014-Nov-17 19:34N 46°32' E 032°05'  
Track history (hours):
 
Tides and Currents Weather Stations Pressure Air Temp Water Temp Dewpoint Dewpoint Depression Visibility Wind Speed Wind Dir Waves Ship Positions

MV Sukran S

Last reported at 2014-Nov-21 08:19 UTC. Time now 2014-Nov-27 08:17 UTC.
Position N 36°34' E 026°43'.

Length 108 m; draft 6.9 m.

Type: Cargo ship. MMSI: 271000056.

Date/timePositionNaut miles runAvg speedWind from/ knotsBaromVisibWave heightAir tempDewpointWater temp
2014-Nov-21 08:19N 36°34' E 026°43'7 9.6
2014-Nov-21 07:33N 36°39' E 026°36'9 9.1
2014-Nov-21 06:33N 36°45' E 026°28'10 9.2
2014-Nov-21 05:28N 36°52' E 026°19'9 9.3
2014-Nov-21 04:31N 36°59' E 026°12'9 9.6
2014-Nov-21 03:33N 37°07' E 026°08'1010.0
2014-Nov-21 02:33N 37°16' E 026°02'10 9.9
2014-Nov-21 01:33N 37°25' E 025°56'1010.2
2014-Nov-21 00:33N 37°35' E 025°53'1310.1
2014-Nov-20 23:13N 37°48' E 025°51'  
2014-Nov-17 22:11N 46°35' E 031°31'6 8.9
2014-Nov-17 21:33N 46°36' E 031°39'9 9.3
2014-Nov-17 20:33N 46°35' E 031°52'9 9.4
2014-Nov-17 19:34N 46°32' E 032°05'  

Dump ship's entire track history